Time;durP1;ratioP1;P1;durP2;ratioP2;P2;SDS_P1;SDS_P2;PMS_P1;PMS_P2;Temp;Humidity;BMP_temperature;BMP_pressure;BME280_temperature;BME280_humidity;BME280_pressure;Samples;Min_cycle;Max_cycle;Signal;HPM_P1;HPM_P2
2020/12/22 00:01:45;;;;;;;;;;;12.60;99.90;;;;;;5026710;28;19944;-80
2020/12/22 00:04:11;;;;;;;;;;;12.70;99.90;;;;;;5024859;28;19960;-82
2020/12/22 00:06:36;;;;;;;;;;;12.70;99.90;;;;;;5025778;28;19914;-80
2020/12/22 00:09:02;;;;;;;;;;;12.70;99.90;;;;;;5025834;28;20001;-80
2020/12/22 00:11:27;;;;;;;;;;;12.80;99.90;;;;;;5025858;28;20334;-80
2020/12/22 00:13:53;;;;;;;;;;;12.80;99.90;;;;;;5025173;28;19914;-80
2020/12/22 00:16:18;;;;;;;;;;;12.80;99.90;;;;;;5023845;28;19924;-79
2020/12/22 00:18:44;;;;;;;;;;;12.80;99.90;;;;;;5025639;28;19917;-80
2020/12/22 00:21:10;;;;;;;;;;;12.90;99.90;;;;;;5021441;28;19909;-80
2020/12/22 00:23:35;;;;;;;;;;;12.90;99.90;;;;;;5025288;28;19916;-79
2020/12/22 00:26:01;;;;;;;;;;;12.90;99.90;;;;;;5024456;28;19992;-79
2020/12/22 00:28:26;;;;;;;;;;;12.90;99.90;;;;;;5026266;28;19910;-80
2020/12/22 00:30:52;;;;;;;;;;;13.00;99.90;;;;;;5024803;28;20373;-79
2020/12/22 00:33:17;;;;;;;;;;;13.00;99.90;;;;;;5026309;28;19916;-80
2020/12/22 00:35:43;;;;;;;;;;;13.00;99.90;;;;;;5022921;28;19920;-80
2020/12/22 00:38:08;;;;;;;;;;;13.00;99.90;;;;;;5024310;28;19921;-80
2020/12/22 00:40:34;;;;;;;;;;;13.00;99.90;;;;;;5022110;28;19937;-80
2020/12/22 00:43:03;;;;;;;;;;;13.10;99.90;;;;;;5025203;28;19973;-79
2020/12/22 00:45:29;;;;;;;;;;;13.10;99.90;;;;;;5023634;28;19913;-80
2020/12/22 00:47:54;;;;;;;;;;;13.10;99.90;;;;;;5027401;28;19917;-79
2020/12/22 00:50:20;;;;;;;;;;;13.20;99.90;;;;;;5029805;28;19914;-79
2020/12/22 00:52:45;;;;;;;;;;;13.20;99.90;;;;;;5026773;28;19910;-79
2020/12/22 00:55:11;;;;;;;;;;;13.20;99.90;;;;;;5016856;28;20348;-79
2020/12/22 00:57:36;;;;;;;;;;;13.20;99.90;;;;;;5020069;28;19964;-79
2020/12/22 01:00:03;;;;;;;;;;;13.30;99.90;;;;;;5019764;28;19920;-79
2020/12/22 01:02:29;;;;;;;;;;;13.30;99.90;;;;;;5021409;28;19981;-79
2020/12/22 01:04:54;;;;;;;;;;;13.30;99.90;;;;;;5017411;28;20015;-79
2020/12/22 01:07:20;;;;;;;;;;;13.40;99.90;;;;;;5017665;28;19948;-79
2020/12/22 01:09:45;;;;;;;;;;;13.40;99.90;;;;;;5014252;28;20088;-79
2020/12/22 01:12:11;;;;;;;;;;;13.40;99.90;;;;;;5016790;28;19920;-79
2020/12/22 01:14:37;;;;;;;;;;;13.40;99.90;;;;;;5017068;28;19977;-79
2020/12/22 01:17:03;;;;;;;;;;;13.40;99.90;;;;;;5019174;28;19910;-79
2020/12/22 01:19:28;;;;;;;;;;;13.40;99.90;;;;;;5018118;28;19937;-79
2020/12/22 01:21:54;;;;;;;;;;;13.40;99.90;;;;;;5017996;28;19918;-79
2020/12/22 01:24:20;;;;;;;;;;;13.30;99.90;;;;;;5014383;28;20358;-79
2020/12/22 01:26:45;;;;;;;;;;;13.30;99.90;;;;;;5016086;28;19948;-79
2020/12/22 01:29:11;;;;;;;;;;;13.30;99.90;;;;;;5015784;28;19979;-79
2020/12/22 01:31:36;;;;;;;;;;;13.30;99.90;;;;;;5019669;28;19909;-79
2020/12/22 01:34:02;;;;;;;;;;;13.40;99.90;;;;;;5016416;28;19949;-79
2020/12/22 01:36:27;;;;;;;;;;;13.40;99.90;;;;;;5016866;28;20336;-79
2020/12/22 01:38:53;;;;;;;;;;;13.40;99.90;;;;;;5017353;28;19917;-79
2020/12/22 01:41:19;;;;;;;;;;;13.40;99.90;;;;;;5016540;28;19914;-79
2020/12/22 01:44:01;;;;;;;;;;;13.40;99.90;;;;;;5015026;28;20365;-79
2020/12/22 01:46:31;;;;;;;;;;;13.40;99.90;;;;;;5016403;28;19914;-79
2020/12/22 01:48:58;;;;;;;;;;;13.40;99.90;;;;;;5017293;28;19917;-79
2020/12/22 01:51:23;;;;;;;;;;;13.40;99.90;;;;;;5020499;28;20008;-79
2020/12/22 01:53:49;;;;;;;;;;;13.40;99.90;;;;;;5020977;28;19945;-80
2020/12/22 01:56:14;;;;;;;;;;;13.40;99.90;;;;;;5020576;28;19914;-79
2020/12/22 01:58:40;;;;;;;;;;;13.40;99.90;;;;;;5017705;28;19920;-79
2020/12/22 02:01:05;;;;;;;;;;;13.40;99.90;;;;;;5019710;28;19948;-79
2020/12/22 02:03:31;;;;;;;;;;;13.30;99.90;;;;;;5019307;28;19913;-79
2020/12/22 02:05:56;;;;;;;;;;;13.30;99.90;;;;;;5017354;28;19913;-79
2020/12/22 02:08:21;;;;;;;;;;;13.30;99.90;;;;;;5018027;28;19909;-79
2020/12/22 02:10:48;;;;;;;;;;;13.30;99.90;;;;;;5019170;28;19917;-79
2020/12/22 02:13:13;;;;;;;;;;;13.30;99.90;;;;;;5023216;28;19910;-79
2020/12/22 02:15:38;;;;;;;;;;;13.30;99.90;;;;;;5021442;28;20340;-80
2020/12/22 02:18:04;;;;;;;;;;;13.30;99.90;;;;;;5021391;28;19913;-79
2020/12/22 02:20:29;;;;;;;;;;;13.30;99.90;;;;;;5021322;28;20051;-79
2020/12/22 02:22:55;;;;;;;;;;;13.30;99.90;;;;;;5022297;28;19914;-79
2020/12/22 02:25:20;;;;;;;;;;;13.30;99.90;;;;;;5018773;28;19919;-79
2020/12/22 02:27:46;;;;;;;;;;;13.40;99.90;;;;;;5020542;28;19928;-79
2020/12/22 02:30:11;;;;;;;;;;;13.40;99.90;;;;;;5019999;28;19936;-79
2020/12/22 02:32:37;;;;;;;;;;;13.40;99.90;;;;;;5021349;28;20388;-80
2020/12/22 02:35:05;;;;;;;;;;;13.30;99.90;;;;;;5021936;28;20497;-79
2020/12/22 02:37:30;;;;;;;;;;;13.30;99.90;;;;;;5022189;28;19913;-79
2020/12/22 02:39:56;;;;;;;;;;;13.30;99.90;;;;;;5023308;28;19914;-79
2020/12/22 02:42:21;;;;;;;;;;;13.30;99.90;;;;;;5023867;28;20395;-79
2020/12/22 02:44:47;;;;;;;;;;;13.30;99.90;;;;;;5024011;28;19972;-79
2020/12/22 02:47:14;;;;;;;;;;;13.30;99.90;;;;;;5024362;28;19913;-79
2020/12/22 02:49:40;;;;;;;;;;;13.30;99.90;;;;;;5025766;28;19920;-79
2020/12/22 02:52:06;;;;;;;;;;;13.30;99.90;;;;;;5024393;28;19913;-80
2020/12/22 02:54:32;;;;;;;;;;;13.30;99.90;;;;;;5025038;28;20484;-79
2020/12/22 02:56:57;;;;;;;;;;;13.30;99.90;;;;;;5023618;28;19915;-79
2020/12/22 02:59:23;;;;;;;;;;;13.40;99.90;;;;;;5024716;28;19913;-80
2020/12/22 03:01:48;;;;;;;;;;;13.40;99.90;;;;;;5024543;28;19913;-79
2020/12/22 03:04:13;;;;;;;;;;;13.40;99.90;;;;;;5024730;28;20389;-79
2020/12/22 03:06:39;;;;;;;;;;;13.50;99.90;;;;;;5023021;28;20120;-79
2020/12/22 03:09:06;;;;;;;;;;;13.50;99.90;;;;;;5024424;28;19913;-81
2020/12/22 03:11:31;;;;;;;;;;;13.50;99.90;;;;;;5023801;28;20337;-79
2020/12/22 03:13:56;;;;;;;;;;;13.60;99.90;;;;;;5023645;28;19914;-79
2020/12/22 03:16:22;;;;;;;;;;;13.60;99.90;;;;;;5020888;28;21624;-79
2020/12/22 03:18:47;;;;;;;;;;;13.60;99.90;;;;;;5023330;28;20012;-80
2020/12/22 03:21:15;;;;;;;;;;;13.60;99.90;;;;;;5021741;28;19921;-79
2020/12/22 03:23:40;;;;;;;;;;;13.70;99.90;;;;;;5024319;28;19944;-79
2020/12/22 03:26:06;;;;;;;;;;;13.70;99.90;;;;;;5023607;28;19910;-79
2020/12/22 03:28:32;;;;;;;;;;;13.70;99.90;;;;;;5022876;28;19913;-80
2020/12/22 03:30:57;;;;;;;;;;;13.70;99.90;;;;;;5022698;28;20001;-79
2020/12/22 03:33:22;;;;;;;;;;;13.80;99.90;;;;;;5021709;28;19913;-80
2020/12/22 03:35:48;;;;;;;;;;;13.80;99.90;;;;;;5023345;28;19913;-79
2020/12/22 03:38:13;;;;;;;;;;;13.80;99.90;;;;;;5021806;28;19921;-79
2020/12/22 03:40:39;;;;;;;;;;;13.80;99.90;;;;;;5023153;28;19910;-79
2020/12/22 03:43:04;;;;;;;;;;;13.80;99.90;;;;;;5022096;28;20587;-80
2020/12/22 03:45:30;;;;;;;;;;;13.80;99.90;;;;;;5023370;28;19969;-80
2020/12/22 03:47:55;;;;;;;;;;;13.90;99.90;;;;;;5022281;28;19922;-80
2020/12/22 03:50:21;;;;;;;;;;;13.90;99.90;;;;;;5021935;28;20014;-80
2020/12/22 03:52:46;;;;;;;;;;;13.90;99.90;;;;;;5020427;28;19921;-80
2020/12/22 03:55:12;;;;;;;;;;;13.90;99.90;;;;;;5021668;28;19914;-79
2020/12/22 03:57:37;;;;;;;;;;;13.90;99.90;;;;;;5023166;28;19937;-80
2020/12/22 04:00:04;;;;;;;;;;;13.90;99.90;;;;;;5023723;28;19918;-81
2020/12/22 04:02:29;;;;;;;;;;;13.80;99.90;;;;;;5028281;28;19932;-79
2020/12/22 04:04:55;;;;;;;;;;;13.80;99.90;;;;;;5023656;28;19917;-80
2020/12/22 04:07:20;;;;;;;;;;;13.80;99.90;;;;;;5023828;28;19910;-79
2020/12/22 04:09:46;;;;;;;;;;;13.80;99.90;;;;;;5021679;28;19914;-80
2020/12/22 04:12:11;;;;;;;;;;;13.70;99.90;;;;;;5026409;28;19917;-79
2020/12/22 04:14:37;;;;;;;;;;;13.70;99.90;;;;;;5027658;28;19910;-79
2020/12/22 04:17:02;;;;;;;;;;;13.70;99.90;;;;;;5023888;28;19921;-79
2020/12/22 04:19:28;;;;;;;;;;;13.60;99.90;;;;;;5022615;28;19933;-79
2020/12/22 04:21:54;;;;;;;;;;;13.60;99.90;;;;;;5020416;28;19926;-80
2020/12/22 04:24:19;;;;;;;;;;;13.60;99.90;;;;;;5021909;28;19910;-79
2020/12/22 04:26:45;;;;;;;;;;;13.60;99.90;;;;;;5018694;28;20000;-79
2020/12/22 04:29:10;;;;;;;;;;;13.60;99.90;;;;;;5020496;28;20293;-79
2020/12/22 04:31:36;;;;;;;;;;;13.60;99.90;;;;;;5016674;28;19935;-79
2020/12/22 04:34:01;;;;;;;;;;;13.60;99.90;;;;;;5020916;28;19909;-79
2020/12/22 04:36:26;;;;;;;;;;;13.60;99.90;;;;;;5020061;28;19936;-79
2020/12/22 04:38:59;;;;;;;;;;;13.60;99.90;;;;;;5019952;28;19918;-79
2020/12/22 04:41:24;;;;;;;;;;;13.70;99.90;;;;;;5018738;28;19960;-79
2020/12/22 04:43:50;;;;;;;;;;;13.70;99.90;;;;;;5018469;28;19922;-79
2020/12/22 04:46:17;;;;;;;;;;;13.70;99.90;;;;;;5018770;28;19913;-79
2020/12/22 04:48:45;;;;;;;;;;;13.70;99.90;;;;;;5019137;28;19914;-79
2020/12/22 04:51:11;;;;;;;;;;;13.70;99.90;;;;;;5020153;28;20362;-80
2020/12/22 04:53:37;;;;;;;;;;;13.80;99.90;;;;;;5019674;28;19921;-79
2020/12/22 04:56:04;;;;;;;;;;;13.80;99.90;;;;;;5020285;28;20286;-80
2020/12/22 04:58:30;;;;;;;;;;;13.80;99.90;;;;;;5019101;28;19917;-79
2020/12/22 05:00:58;;;;;;;;;;;13.80;99.90;;;;;;5017269;28;19913;-79
2020/12/22 05:03:24;;;;;;;;;;;13.70;99.90;;;;;;5018220;28;19928;-79
2020/12/22 05:05:50;;;;;;;;;;;13.70;99.90;;;;;;5016343;28;19948;-79
2020/12/22 05:08:16;;;;;;;;;;;13.70;99.90;;;;;;5018099;28;19917;-79
2020/12/22 05:10:42;;;;;;;;;;;13.70;99.90;;;;;;5018603;28;19921;-79
2020/12/22 05:13:08;;;;;;;;;;;13.70;99.90;;;;;;5019219;28;19921;-79
2020/12/22 05:15:34;;;;;;;;;;;13.70;99.90;;;;;;5013392;28;20007;-79
2020/12/22 05:18:00;;;;;;;;;;;13.80;99.90;;;;;;5026244;28;19959;-79
2020/12/22 05:20:26;;;;;;;;;;;13.80;99.90;;;;;;5015446;28;19914;-79
2020/12/22 05:22:53;;;;;;;;;;;13.80;99.90;;;;;;5020710;28;20280;-79
2020/12/22 05:25:19;;;;;;;;;;;13.80;99.90;;;;;;5019164;28;19914;-79
2020/12/22 05:27:47;;;;;;;;;;;13.70;99.90;;;;;;5018618;28;19945;-79
2020/12/22 05:30:15;;;;;;;;;;;13.70;99.90;;;;;;5015696;28;19913;-79
2020/12/22 05:32:42;;;;;;;;;;;13.70;99.90;;;;;;5014987;28;19955;-79
2020/12/22 05:35:07;;;;;;;;;;;13.70;99.90;;;;;;5014560;28;19936;-79
2020/12/22 05:37:38;;;;;;;;;;;13.70;99.90;;;;;;5014990;28;19918;-79
2020/12/22 05:40:06;;;;;;;;;;;13.70;99.90;;;;;;4998534;28;19953;-79
2020/12/22 05:42:32;;;;;;;;;;;13.70;99.90;;;;;;5014807;28;19913;-79
2020/12/22 05:44:57;;;;;;;;;;;13.70;99.90;;;;;;5015766;28;19936;-79
2020/12/22 05:47:23;;;;;;;;;;;13.80;99.90;;;;;;5016483;28;19924;-79
2020/12/22 05:49:52;;;;;;;;;;;13.80;99.90;;;;;;5014392;28;19913;-79
2020/12/22 05:52:21;;;;;;;;;;;13.80;99.90;;;;;;5014356;28;20292;-79
2020/12/22 05:54:50;;;;;;;;;;;13.80;99.90;;;;;;5018444;28;19973;-79
2020/12/22 05:57:18;;;;;;;;;;;13.80;99.90;;;;;;5019610;28;19918;-79
2020/12/22 05:59:44;;;;;;;;;;;13.90;99.90;;;;;;5019609;28;19917;-79
2020/12/22 06:02:09;;;;;;;;;;;13.90;99.90;;;;;;5021256;28;19952;-80
2020/12/22 06:04:35;;;;;;;;;;;13.90;99.90;;;;;;5019046;28;19914;-79
2020/12/22 06:07:01;;;;;;;;;;;13.90;99.90;;;;;;5021176;28;20000;-80
2020/12/22 06:09:27;;;;;;;;;;;13.90;99.90;;;;;;5017456;28;20440;-79
2020/12/22 06:11:58;;;;;;;;;;;13.80;99.90;;;;;;5021844;28;19915;-79
2020/12/22 06:14:24;;;;;;;;;;;13.80;99.90;;;;;;5019455;28;19946;-79
2020/12/22 06:16:50;;;;;;;;;;;13.80;99.90;;;;;;5024847;28;20008;-79
2020/12/22 06:19:15;;;;;;;;;;;13.80;99.90;;;;;;5022648;28;19913;-79
2020/12/22 06:21:41;;;;;;;;;;;13.80;99.90;;;;;;5025555;28;19914;-79
2020/12/22 06:24:06;;;;;;;;;;;13.80;99.90;;;;;;5024194;28;19956;-79
2020/12/22 06:26:32;;;;;;;;;;;13.80;99.90;;;;;;5022824;28;20332;-79
2020/12/22 06:28:57;;;;;;;;;;;13.70;99.90;;;;;;5022950;28;19940;-79
2020/12/22 06:31:23;;;;;;;;;;;13.70;99.90;;;;;;5022878;28;19940;-80
2020/12/22 06:33:52;;;;;;;;;;;13.70;99.90;;;;;;5024080;28;19913;-79
2020/12/22 06:36:18;;;;;;;;;;;13.70;99.90;;;;;;5024248;28;19920;-79
2020/12/22 06:38:53;;;;;;;;;;;13.60;99.90;;;;;;5022541;28;19921;-79
2020/12/22 06:41:25;;;;;;;;;;;13.60;99.90;;;;;;5024233;28;19920;-79
2020/12/22 06:43:50;;;;;;;;;;;13.70;99.90;;;;;;5022745;28;19918;-79
2020/12/22 06:46:37;;;;;;;;;;;13.60;99.90;;;;;;5022899;28;19913;-79
2020/12/22 06:49:05;;;;;;;;;;;13.60;99.90;;;;;;5023561;28;19910;-79
2020/12/22 06:51:34;;;;;;;;;;;13.60;99.90;;;;;;5022443;28;19921;-79
2020/12/22 06:54:00;;;;;;;;;;;13.60;99.90;;;;;;5023964;28;19913;-79
2020/12/22 06:56:47;;;;;;;;;;;13.60;99.90;;;;;;5022108;28;20377;-79
2020/12/22 06:59:31;;;;;;;;;;;13.70;99.90;;;;;;5021606;28;19972;-79
2020/12/22 07:01:56;;;;;;;;;;;13.70;99.90;;;;;;5021986;28;20336;-79
2020/12/22 07:04:23;;;;;;;;;;;13.70;99.90;;;;;;5020672;28;19952;-79
2020/12/22 07:06:50;;;;;;;;;;;13.80;99.90;;;;;;5023288;28;19909;-79
2020/12/22 07:09:22;;;;;;;;;;;13.80;99.90;;;;;;5022274;28;19914;-79
2020/12/22 07:11:49;;;;;;;;;;;13.80;99.90;;;;;;5021941;28;19920;-80
2020/12/22 07:14:15;;;;;;;;;;;13.80;99.90;;;;;;5020896;28;19918;-80
2020/12/22 07:16:49;;;;;;;;;;;13.80;99.90;;;;;;5022864;28;19917;-80
2020/12/22 07:19:16;;;;;;;;;;;13.90;99.90;;;;;;5019520;28;19913;-80
2020/12/22 07:21:41;;;;;;;;;;;13.90;99.90;;;;;;5018826;28;20371;-79
2020/12/22 07:24:07;;;;;;;;;;;13.90;99.90;;;;;;5019834;28;19921;-80
2020/12/22 07:26:35;;;;;;;;;;;14.00;99.90;;;;;;5020305;28;19917;-80
2020/12/22 07:29:00;;;;;;;;;;;14.00;99.90;;;;;;5022520;28;19917;-80
2020/12/22 07:31:26;;;;;;;;;;;14.00;99.90;;;;;;5020307;28;19914;-80
2020/12/22 07:33:51;;;;;;;;;;;14.00;99.90;;;;;;5021182;28;19916;-80
2020/12/22 07:36:17;;;;;;;;;;;14.00;99.90;;;;;;5020197;28;19985;-79
2020/12/22 07:38:42;;;;;;;;;;;14.00;99.90;;;;;;5026841;28;19943;-79
2020/12/22 07:41:08;;;;;;;;;;;14.00;99.90;;;;;;5027100;28;19914;-79
2020/12/22 07:43:33;;;;;;;;;;;14.00;99.90;;;;;;5023835;28;19925;-79
2020/12/22 07:45:59;;;;;;;;;;;14.00;99.90;;;;;;5022207;28;20365;-79
2020/12/22 07:48:24;;;;;;;;;;;14.10;99.90;;;;;;5023402;28;19929;-79
2020/12/22 07:50:53;;;;;;;;;;;14.10;99.90;;;;;;5022089;28;19914;-79
2020/12/22 07:53:19;;;;;;;;;;;14.10;99.90;;;;;;5022483;28;19909;-79
2020/12/22 07:55:44;;;;;;;;;;;14.10;99.90;;;;;;5018922;28;19913;-80
2020/12/22 08:00:00;;;;;;;;;;;14.10;99.90;;;;;;5076100;28;19927;-79
2020/12/22 08:02:26;;;;;;;;;;;14.10;99.90;;;;;;5079721;28;20278;-79
2020/12/22 08:04:51;;;;;;;;;;;14.10;99.90;;;;;;5056105;28;19940;-79
2020/12/22 08:07:18;;;;;;;;;;;14.10;99.90;;;;;;5056894;28;19913;-79
2020/12/22 08:09:43;;;;;;;;;;;14.10;99.90;;;;;;5056298;28;19997;-79
2020/12/22 08:12:10;;;;;;;;;;;14.00;99.90;;;;;;5053952;28;19913;-79
2020/12/22 08:14:37;;;;;;;;;;;14.00;99.90;;;;;;5054312;28;19913;-79
2020/12/22 08:17:05;;;;;;;;;;;13.90;99.90;;;;;;5057578;28;20343;-79
2020/12/22 08:19:34;;;;;;;;;;;13.90;99.90;;;;;;5057640;28;19991;-79
2020/12/22 08:22:00;;;;;;;;;;;13.80;99.90;;;;;;5055758;28;19913;-81
2020/12/22 08:24:27;;;;;;;;;;;13.80;99.90;;;;;;5052595;28;19919;-79
2020/12/22 08:26:52;;;;;;;;;;;13.80;99.90;;;;;;5055592;28;19966;-79
2020/12/22 08:29:18;;;;;;;;;;;13.90;99.90;;;;;;5053348;28;19996;-79
2020/12/22 08:31:44;;;;;;;;;;;14.10;99.90;;;;;;5049668;28;19920;-79
2020/12/22 08:34:11;;;;;;;;;;;14.40;99.90;;;;;;5050539;28;19913;-79
2020/12/22 08:36:36;;;;;;;;;;;14.60;99.90;;;;;;5055992;28;19913;-81
2020/12/22 08:39:20;;;;;;;;;;;14.80;99.90;;;;;;5056187;28;19913;-81
2020/12/22 08:41:47;;;;;;;;;;;14.90;99.90;;;;;;5040820;28;19918;-81
2020/12/22 08:44:13;;;;;;;;;;;14.90;99.90;;;;;;5041073;28;19913;-81
2020/12/22 08:46:39;;;;;;;;;;;14.90;99.90;;;;;;5050120;28;19951;-79
2020/12/22 08:49:05;;;;;;;;;;;14.90;99.90;;;;;;5037392;28;19920;-81
2020/12/22 08:51:31;;;;;;;;;;;14.90;99.90;;;;;;5042019;28;20505;-81
2020/12/22 08:53:56;;;;;;;;;;;14.90;99.90;;;;;;5039642;28;19921;-82
2020/12/22 08:56:23;;;;;;;;;;;14.90;99.90;;;;;;5040550;28;19966;-82
2020/12/22 08:58:53;;;;;;;;;;;14.90;99.90;;;;;;5047301;28;19917;-81
2020/12/22 09:01:19;;;;;;;;;;;15.00;99.90;;;;;;5051847;28;20353;-81
2020/12/22 09:03:50;;;;;;;;;;;15.00;99.90;;;;;;5062208;28;19913;-82
2020/12/22 09:06:15;;;;;;;;;;;15.10;99.90;;;;;;5066347;28;19917;-82
2020/12/22 09:08:41;;;;;;;;;;;15.20;99.90;;;;;;5058381;28;19920;-82
2020/12/22 09:11:16;;;;;;;;;;;15.40;99.90;;;;;;5054875;28;19913;-81
2020/12/22 09:13:41;;;;;;;;;;;15.50;99.90;;;;;;5037779;28;19912;-80
2020/12/22 09:16:07;;;;;;;;;;;15.70;99.90;;;;;;5049223;28;19921;-81
2020/12/22 09:18:33;;;;;;;;;;;15.60;99.90;;;;;;5035828;28;19961;-84
2020/12/22 09:21:05;;;;;;;;;;;15.50;99.90;;;;;;5034971;28;19920;-82
2020/12/22 09:23:30;;;;;;;;;;;15.30;99.90;;;;;;5043437;28;19912;-81
2020/12/22 09:25:56;;;;;;;;;;;15.20;99.90;;;;;;5044303;28;19921;-81
2020/12/22 09:28:21;;;;;;;;;;;15.00;99.90;;;;;;5053772;28;19920;-81
2020/12/22 09:30:47;;;;;;;;;;;14.90;99.90;;;;;;5051183;28;19913;-81
2020/12/22 09:33:13;;;;;;;;;;;14.70;99.90;;;;;;5059953;28;20381;-81
2020/12/22 09:35:39;;;;;;;;;;;14.60;99.90;;;;;;5045384;28;19913;-81
2020/12/22 09:38:04;;;;;;;;;;;14.50;99.90;;;;;;5054368;28;19916;-81
2020/12/22 09:40:30;;;;;;;;;;;14.40;99.90;;;;;;5037813;28;19962;-81
2020/12/22 09:42:55;;;;;;;;;;;14.40;99.90;;;;;;5059066;28;19955;-81
2020/12/22 09:45:20;;;;;;;;;;;14.40;99.90;;;;;;5058413;28;19999;-81
2020/12/22 09:47:46;;;;;;;;;;;14.40;99.90;;;;;;5059004;28;19913;-81
2020/12/22 09:50:11;;;;;;;;;;;14.50;99.90;;;;;;5036412;28;19955;-81
2020/12/22 09:52:37;;;;;;;;;;;14.80;99.90;;;;;;5059004;28;19936;-81
2020/12/22 09:55:02;;;;;;;;;;;15.20;99.90;;;;;;5063773;28;19955;-82
2020/12/22 09:57:28;;;;;;;;;;;15.60;99.90;;;;;;5050477;28;20507;-82
2020/12/22 09:59:54;;;;;;;;;;;15.90;99.90;;;;;;5050460;28;19986;-81
2020/12/22 10:02:19;;;;;;;;;;;16.10;99.90;;;;;;5040163;28;19917;-82
2020/12/22 10:04:45;;;;;;;;;;;16.20;99.90;;;;;;5045498;28;19924;-82
2020/12/22 10:07:10;;;;;;;;;;;16.30;99.90;;;;;;5050783;28;19919;-82
2020/12/22 10:09:36;;;;;;;;;;;16.40;99.90;;;;;;5046258;28;19913;-82
2020/12/22 10:12:02;;;;;;;;;;;16.50;99.90;;;;;;5056791;28;19971;-82
2020/12/22 10:14:27;;;;;;;;;;;16.70;99.90;;;;;;5042684;28;19914;-81
2020/12/22 10:16:52;;;;;;;;;;;16.80;99.90;;;;;;5032780;28;19917;-81
2020/12/22 10:19:18;;;;;;;;;;;16.90;99.90;;;;;;5027493;28;20006;-82
2020/12/22 10:21:43;;;;;;;;;;;16.80;99.90;;;;;;5031238;28;20002;-81
2020/12/22 10:24:09;;;;;;;;;;;16.70;99.90;;;;;;5043669;28;19921;-81
2020/12/22 10:26:34;;;;;;;;;;;16.60;99.90;;;;;;5058444;28;19913;-81
2020/12/22 10:29:00;;;;;;;;;;;16.40;99.90;;;;;;5056751;28;19912;-81
2020/12/22 10:31:26;;;;;;;;;;;16.30;99.90;;;;;;5050984;28;19913;-81
2020/12/22 10:33:52;;;;;;;;;;;16.20;99.90;;;;;;5058211;28;20377;-81
2020/12/22 10:36:19;;;;;;;;;;;16.00;99.90;;;;;;5054137;28;19913;-82
2020/12/22 10:38:44;;;;;;;;;;;16.00;99.90;;;;;;5050757;28;19923;-81
2020/12/22 10:41:10;;;;;;;;;;;15.90;99.90;;;;;;5034891;28;20007;-80
2020/12/22 10:43:35;;;;;;;;;;;15.90;99.90;;;;;;5056850;28;20392;-81
2020/12/22 10:46:01;;;;;;;;;;;16.10;99.90;;;;;;5051185;28;19983;-82
2020/12/22 10:48:27;;;;;;;;;;;16.20;99.90;;;;;;5054600;28;19921;-81
2020/12/22 10:50:52;;;;;;;;;;;16.20;99.90;;;;;;5055757;28;19913;-81
2020/12/22 10:53:18;;;;;;;;;;;16.20;99.90;;;;;;5042381;28;20779;-81
2020/12/22 10:55:43;;;;;;;;;;;16.10;99.90;;;;;;5066519;22;19932;-82
2020/12/22 10:58:09;;;;;;;;;;;16.00;99.90;;;;;;5064796;28;19921;-83
2020/12/22 11:00:35;;;;;;;;;;;16.00;99.90;;;;;;5053028;28;19912;-84
2020/12/22 11:03:04;;;;;;;;;;;16.10;99.90;;;;;;5054582;28;19920;-85
2020/12/22 11:08:13;;;;;;;;;;;16.20;99.90;;;;;;5055396;28;20007;-84
2020/12/22 11:10:49;;;;;;;;;;;16.20;99.90;;;;;;5055531;28;19948;-84
2020/12/22 11:13:15;;;;;;;;;;;16.20;99.90;;;;;;5033766;28;19928;-84
2020/12/22 11:15:44;;;;;;;;;;;16.20;99.90;;;;;;5033735;28;19974;-85
2020/12/22 11:18:09;;;;;;;;;;;16.20;99.90;;;;;;5035356;28;20284;-86
2020/12/22 11:20:35;;;;;;;;;;;16.40;99.90;;;;;;5036336;28;19912;-85
2020/12/22 11:23:00;;;;;;;;;;;16.40;99.90;;;;;;5051916;28;19916;-86
2020/12/22 11:25:26;;;;;;;;;;;16.50;99.90;;;;;;5052566;28;19913;-86
2020/12/22 11:27:51;;;;;;;;;;;16.50;99.90;;;;;;5034292;28;19928;-85
2020/12/22 11:30:17;;;;;;;;;;;16.50;99.90;;;;;;5047663;28;19920;-86
2020/12/22 11:32:42;;;;;;;;;;;16.50;99.90;;;;;;5032931;28;19913;-86
2020/12/22 11:35:08;;;;;;;;;;;16.60;99.90;;;;;;5050448;28;19944;-86
2020/12/22 11:37:34;;;;;;;;;;;16.50;99.90;;;;;;5034073;28;19935;-86
2020/12/22 11:39:59;;;;;;;;;;;16.40;99.90;;;;;;5033998;28;19917;-86
2020/12/22 11:42:25;;;;;;;;;;;16.40;99.90;;;;;;5052583;28;19938;-86
2020/12/22 11:44:51;;;;;;;;;;;16.30;99.90;;;;;;5033139;28;19939;-85
2020/12/22 11:47:19;;;;;;;;;;;16.40;99.90;;;;;;5032336;28;20007;-86
2020/12/22 11:49:55;;;;;;;;;;;16.40;99.90;;;;;;5060541;28;19912;-86
2020/12/22 11:52:26;;;;;;;;;;;16.30;99.90;;;;;;5037734;28;19920;-86
2020/12/22 11:54:52;;;;;;;;;;;16.20;99.90;;;;;;5034015;28;19920;-86
2020/12/22 11:57:18;;;;;;;;;;;16.10;99.90;;;;;;5051050;28;20296;-87
2020/12/22 11:59:43;;;;;;;;;;;16.00;99.90;;;;;;5052310;28;19913;-88
2020/12/22 12:02:09;;;;;;;;;;;16.00;99.90;;;;;;5031834;28;19952;-88
2020/12/22 12:04:34;;;;;;;;;;;15.90;99.90;;;;;;5030802;28;19913;-87
2020/12/22 12:07:00;;;;;;;;;;;15.90;99.90;;;;;;5015902;28;20343;-87
2020/12/22 12:09:28;;;;;;;;;;;15.80;99.90;;;;;;5030549;28;20047;-87
2020/12/22 12:11:53;;;;;;;;;;;15.80;99.90;;;;;;5026343;28;19909;-87
2020/12/22 12:14:19;;;;;;;;;;;15.90;99.90;;;;;;5052431;28;19942;-87
2020/12/22 12:16:48;;;;;;;;;;;15.80;99.90;;;;;;5049426;28;19915;-86
2020/12/22 12:19:14;;;;;;;;;;;15.80;99.90;;;;;;5045556;28;19913;-87
2020/12/22 12:21:40;;;;;;;;;;;15.70;99.90;;;;;;5055787;28;19964;-87
2020/12/22 12:24:06;;;;;;;;;;;15.60;99.90;;;;;;5043278;28;19917;-86
2020/12/22 12:26:34;;;;;;;;;;;15.50;99.90;;;;;;5046370;28;19944;-85
2020/12/22 12:29:00;;;;;;;;;;;15.50;99.90;;;;;;5051069;28;19959;-87
2020/12/22 12:31:27;;;;;;;;;;;15.50;99.90;;;;;;5055859;28;20007;-87
2020/12/22 12:33:53;;;;;;;;;;;15.60;99.90;;;;;;5060056;28;20366;-86
2020/12/22 12:36:18;;;;;;;;;;;15.50;99.90;;;;;;5032515;28;19991;-87
2020/12/22 12:38:44;;;;;;;;;;;15.50;99.90;;;;;;5052312;28;20406;-86
2020/12/22 12:41:11;;;;;;;;;;;15.40;99.90;;;;;;5041218;28;19916;-86
2020/12/22 12:43:36;;;;;;;;;;;15.30;99.90;;;;;;5031556;28;19920;-86
2020/12/22 12:46:04;;;;;;;;;;;15.30;99.90;;;;;;5046126;28;19913;-86
2020/12/22 12:48:29;;;;;;;;;;;15.40;99.90;;;;;;5054245;28;19975;-87
2020/12/22 12:50:57;;;;;;;;;;;15.50;99.90;;;;;;5036757;28;20339;-87
2020/12/22 12:53:25;;;;;;;;;;;15.50;99.90;;;;;;5054360;28;19913;-87
2020/12/22 12:55:51;;;;;;;;;;;15.50;99.90;;;;;;5055445;28;19913;-87
2020/12/22 12:58:16;;;;;;;;;;;15.40;99.90;;;;;;5036851;28;19924;-87
2020/12/22 13:00:42;;;;;;;;;;;15.30;99.90;;;;;;5036507;28;19935;-87
2020/12/22 13:03:07;;;;;;;;;;;15.20;99.90;;;;;;5026152;28;20300;-87
2020/12/22 13:05:33;;;;;;;;;;;15.10;99.90;;;;;;5033146;28;19913;-88
2020/12/22 13:07:58;;;;;;;;;;;15.10;99.90;;;;;;5053546;28;19924;-88
2020/12/22 13:10:24;;;;;;;;;;;15.00;99.90;;;;;;5050984;28;19912;-89
2020/12/22 13:12:49;;;;;;;;;;;15.00;99.90;;;;;;5039909;28;19959;-89
2020/12/22 13:15:17;;;;;;;;;;;14.90;99.90;;;;;;5037803;28;19909;-88
2020/12/22 13:17:43;;;;;;;;;;;14.90;99.90;;;;;;5050792;28;19912;-87
2020/12/22 13:20:08;;;;;;;;;;;14.90;99.90;;;;;;5032243;28;20003;-89
2020/12/22 13:22:33;;;;;;;;;;;14.90;99.90;;;;;;5017742;28;19920;-89
2020/12/22 13:24:59;;;;;;;;;;;15.00;99.90;;;;;;5044256;28;19916;-88
2020/12/22 13:27:25;;;;;;;;;;;15.10;99.90;;;;;;5049041;28;19933;-88
2020/12/22 13:29:50;;;;;;;;;;;15.50;99.90;;;;;;5069227;28;19924;-88
2020/12/22 13:32:16;;;;;;;;;;;15.70;99.90;;;;;;5063849;28;20305;-89
2020/12/22 13:34:41;;;;;;;;;;;15.80;99.90;;;;;;5058693;28;19913;-89
2020/12/22 13:37:07;;;;;;;;;;;15.80;99.90;;;;;;5032688;28;20051;-87
2020/12/22 13:39:32;;;;;;;;;;;15.70;99.90;;;;;;5058527;28;19912;-87
2020/12/22 13:41:58;;;;;;;;;;;15.60;99.90;;;;;;5046712;28;20366;-87
2020/12/22 13:44:24;;;;;;;;;;;15.40;99.90;;;;;;5030379;28;19913;-88
2020/12/22 13:46:49;;;;;;;;;;;15.20;99.90;;;;;;5041945;28;20323;-89
2020/12/22 13:49:15;;;;;;;;;;;15.00;99.90;;;;;;5060253;28;19928;-88
2020/12/22 13:51:40;;;;;;;;;;;14.90;99.90;;;;;;5067178;28;19916;-88
2020/12/22 13:54:08;;;;;;;;;;;14.80;99.90;;;;;;5036967;28;19919;-88
2020/12/22 13:56:34;;;;;;;;;;;14.70;99.90;;;;;;5054186;28;20614;-88
2020/12/22 13:58:59;;;;;;;;;;;14.60;99.90;;;;;;5060127;28;19999;-88
2020/12/22 14:01:31;;;;;;;;;;;14.60;99.90;;;;;;5052124;28;19917;-88
2020/12/22 14:03:57;;;;;;;;;;;14.60;99.90;;;;;;5035701;28;19913;-87
2020/12/22 14:06:26;;;;;;;;;;;14.70;99.90;;;;;;5034312;28;20011;-88
2020/12/22 14:08:55;;;;;;;;;;;14.70;99.90;;;;;;5031618;28;19925;-87
2020/12/22 14:11:20;;;;;;;;;;;14.80;99.90;;;;;;5041011;28;19935;-88
2020/12/22 14:13:46;;;;;;;;;;;14.80;99.90;;;;;;5064483;28;20523;-88
2020/12/22 14:16:15;;;;;;;;;;;14.80;99.90;;;;;;5035205;28;20336;-86